Time;durP1;ratioP1;P1;durP2;ratioP2;P2;SDS_P1;SDS_P2;PMS_P1;PMS_P2;Temp;Humidity;BMP_temperature;BMP_pressure;BME280_temperature;BME280_humidity;BME280_pressure;Samples;Min_cycle;Max_cycle;Signal;HPM_P1;HPM_P2
2022/12/21 00:01:20;;;;;;;22.83;13.73;;;;;;;5.05;100.00;100416.09;4831513;29;20046;-82
2022/12/21 00:03:51;;;;;;;26.63;15.67;;;;;;;5.01;100.00;100420.44;4831619;29;20050;-81
2022/12/21 00:06:18;;;;;;;20.90;12.97;;;;;;;5.00;100.00;100415.22;4834139;29;20051;-79
2022/12/21 00:08:46;;;;;;;30.67;14.87;;;;;;;4.98;100.00;100427.44;4807718;29;20444;-80
2022/12/21 00:11:13;;;;;;;25.33;14.27;;;;;;;4.90;100.00;100430.06;4827057;29;20034;-80
2022/12/21 00:13:41;;;;;;;28.33;16.70;;;;;;;5.05;100.00;100423.97;4844450;29;20038;-80
2022/12/21 00:16:13;;;;;;;28.10;15.80;;;;;;;4.96;100.00;100423.94;4833451;29;20511;-80
2022/12/21 00:18:41;;;;;;;27.17;15.73;;;;;;;4.93;100.00;100413.50;4826896;29;20054;-80
2022/12/21 00:21:11;;;;;;;30.17;14.87;;;;;;;4.92;100.00;100417.84;4824616;29;20053;-80
2022/12/21 00:23:37;;;;;;;26.13;15.40;;;;;;;5.00;100.00;100408.25;4823680;29;20636;-79
2022/12/21 00:26:05;;;;;;;26.13;14.10;;;;;;;4.98;100.00;100411.75;4820194;29;20134;-80
2022/12/21 00:28:32;;;;;;;30.33;16.50;;;;;;;5.06;100.00;100410.00;4822968;29;20054;-80
2022/12/21 00:31:14;;;;;;;26.60;15.20;;;;;;;5.05;100.00;100398.66;4809082;29;20055;-80
2022/12/21 00:33:45;;;;;;;27.63;15.77;;;;;;;5.02;100.00;100398.63;4839726;29;20142;-80
2022/12/21 00:36:14;;;;;;;26.50;15.37;;;;;;;5.05;100.00;100397.78;4838823;29;20046;-80
2022/12/21 00:38:41;;;;;;;27.07;15.13;;;;;;;5.03;100.00;100389.91;4822789;29;20133;-80
2022/12/21 00:41:10;;;;;;;26.37;15.20;;;;;;;4.93;100.00;100392.53;4821061;29;20054;-80
2022/12/21 00:43:39;;;;;;;30.43;16.80;;;;;;;5.09;100.00;100386.41;4835745;29;20050;-80
2022/12/21 00:46:06;;;;;;;28.33;15.17;;;;;;;5.05;100.00;100389.91;4815531;29;20074;-80
2022/12/21 00:48:34;;;;;;;30.53;16.03;;;;;;;5.00;100.00;100382.06;4807255;29;20497;-80
2022/12/21 00:51:11;;;;;;;29.30;16.03;;;;;;;4.93;100.00;100384.69;4823095;29;20087;-81
2022/12/21 00:53:41;;;;;;;28.33;15.10;;;;;;;4.97;100.00;100386.44;4822451;29;20055;-80
2022/12/21 00:56:09;;;;;;;31.27;14.83;;;;;;;4.95;100.00;100381.19;4825210;29;20043;-80
2022/12/21 00:58:36;;;;;;;30.20;14.60;;;;;;;4.97;100.00;100381.22;4849287;29;20086;-82
2022/12/21 01:01:14;;;;;;;28.23;15.93;;;;;;;4.89;100.00;100378.59;4802756;29;20046;-82
2022/12/21 01:03:41;;;;;;;28.67;16.70;;;;;;;4.89;100.00;100386.47;4834282;29;20037;-82
2022/12/21 01:06:13;;;;;;;34.47;16.17;;;;;;;4.95;100.00;100382.94;4825152;29;20073;-82
2022/12/21 01:08:40;;;;;;;26.87;15.83;;;;;;;4.88;100.00;100382.09;4827232;29;20552;-82
2022/12/21 01:11:09;;;;;;;27.07;16.03;;;;;;;4.90;100.00;100392.56;4802211;29;20513;-82
2022/12/21 01:13:36;;;;;;;33.93;16.83;;;;;;;4.94;100.00;100383.81;4840904;29;20124;-81
2022/12/21 01:16:05;;;;;;;27.40;14.90;;;;;;;4.90;100.00;100387.31;4839407;29;20068;-80
2022/12/21 01:18:32;;;;;;;28.27;14.27;;;;;;;4.86;100.00;100372.47;4825386;29;20042;-80
2022/12/21 01:20:58;;;;;;;29.20;15.90;;;;;;;4.88;100.00;100384.72;4826697;29;20038;-80
2022/12/21 01:23:25;;;;;;;28.97;16.00;;;;;;;4.88;100.00;100378.63;4825616;29;20586;-80
2022/12/21 01:25:52;;;;;;;31.10;16.83;;;;;;;4.89;100.00;100383.84;4824351;29;20050;-80
2022/12/21 01:28:19;;;;;;;30.23;16.30;;;;;;;4.83;100.00;100378.59;4831381;29;20105;-81
2022/12/21 01:30:46;;;;;;;27.40;15.17;;;;;;;4.84;100.00;100375.09;4823412;29;20045;-80
2022/12/21 01:33:17;;;;;;;27.43;16.17;;;;;;;4.89;100.00;100381.22;4823824;29;20054;-81
2022/12/21 01:35:45;;;;;;;29.70;16.13;;;;;;;4.84;100.00;100384.72;4816854;29;20050;-80
2022/12/21 01:38:12;;;;;;;29.53;15.73;;;;;;;4.82;100.00;100384.72;4830143;29;20054;-80
2022/12/21 01:40:39;;;;;;;25.90;15.07;;;;;;;4.80;100.00;100376.88;4825879;29;20742;-80
2022/12/21 01:43:45;;;;;;;27.00;14.97;;;;;;;4.87;100.00;100369.00;4833065;29;20113;-80
2022/12/21 01:46:50;;;;;;;35.27;17.10;;;;;;;4.92;100.00;100367.25;4841241;29;20049;-81
2022/12/21 01:49:18;;;;;;;30.87;16.67;;;;;;;4.98;100.00;100367.25;4796912;29;20051;-79
2022/12/21 01:51:48;;;;;;;27.60;15.67;;;;;;;4.96;100.00;100369.88;4795086;29;20399;-81
2022/12/21 01:54:21;;;;;;;34.77;16.83;;;;;;;4.95;100.00;100364.59;4808354;29;20065;-81
2022/12/21 01:56:49;;;;;;;28.67;16.93;;;;;;;4.95;100.00;100360.25;4823649;29;20527;-79
2022/12/21 01:59:21;;;;;;;29.70;16.53;;;;;;;4.92;100.00;100360.25;4850382;29;20042;-80
2022/12/21 02:01:48;;;;;;;31.73;16.13;;;;;;;4.88;100.00;100355.06;4825824;29;20144;-80
2022/12/21 02:04:14;;;;;;;31.90;17.93;;;;;;;4.91;100.00;100358.53;4826034;29;20045;-81
2022/12/21 02:06:47;;;;;;;29.83;16.67;;;;;;;4.91;100.00;100355.91;4824268;29;20034;-80
2022/12/21 02:09:15;;;;;;;33.60;16.50;;;;;;;5.00;100.00;100353.25;4838490;29;20500;-80
2022/12/21 02:11:43;;;;;;;32.63;17.57;;;;;;;5.01;100.00;100347.16;4829004;29;20045;-80
2022/12/21 02:14:14;;;;;;;31.70;16.30;;;;;;;4.90;100.00;100341.09;4808958;29;20057;-79
2022/12/21 02:16:59;;;;;;;29.83;17.50;;;;;;;4.90;100.00;100343.69;4823838;29;20042;-81
2022/12/21 02:20:03;;;;;;;33.87;16.10;;;;;;;4.97;100.00;100348.03;4838100;29;20046;-79
2022/12/21 02:22:45;;;;;;;36.37;17.13;;;;;;;4.95;100.00;100341.03;4842436;23;20053;-83
2022/12/21 02:25:28;;;;;;;28.87;16.50;;;;;;;4.95;100.00;100338.44;4856723;29;20042;-83
2022/12/21 02:28:18;;;;;;;32.17;15.30;;;;;;;4.84;100.00;100343.69;4854311;29;20503;-84
2022/12/21 02:31:15;;;;;;;27.97;16.27;;;;;;;4.89;100.00;100339.34;4855054;29;20049;-84
2022/12/21 02:34:03;;;;;;;30.77;15.73;;;;;;;4.93;100.00;100340.19;4852912;29;20053;-84
2022/12/21 02:37:12;;;;;;;31.90;16.13;;;;;;;4.95;100.00;100341.91;4854067;29;20038;-84
2022/12/21 02:39:57;;;;;;;26.30;15.03;;;;;;;4.89;100.00;100335.84;4853483;29;20045;-83
2022/12/21 02:45:34;;;;;;;38.90;18.37;;;;;;;4.88;100.00;100327.13;4852781;29;20050;-84
2022/12/21 02:48:09;;;;;;;36.93;18.33;;;;;;;4.98;100.00;100330.59;4838394;29;20038;-83
2022/12/21 02:50:38;;;;;;;30.77;17.07;;;;;;;4.93;100.00;100327.09;4831616;29;20042;-84
2022/12/21 02:53:12;;;;;;;29.93;16.13;;;;;;;4.87;100.00;100335.84;4835128;29;20041;-83
2022/12/21 02:55:39;;;;;;;31.23;16.60;;;;;;;4.95;100.00;100328.81;4837554;29;20091;-85
2022/12/21 02:58:11;;;;;;;31.70;17.50;;;;;;;4.92;100.00;100331.47;4835269;29;20038;-86
2022/12/21 03:00:48;;;;;;;32.20;18.30;;;;;;;4.96;100.00;100327.06;4836442;29;20097;-83
2022/12/21 03:03:52;;;;;;;33.27;18.43;;;;;;;4.97;100.00;100328.84;4848125;29;20038;-85
2022/12/21 03:06:25;;;;;;;30.93;16.50;;;;;;;4.92;100.00;100333.22;4834494;29;20050;-84
2022/12/21 03:09:22;;;;;;;27.97;17.20;;;;;;;4.99;100.00;100333.19;4848895;29;20043;-84
2022/12/21 03:11:56;;;;;;;29.43;16.80;;;;;;;4.92;100.00;100334.09;4850241;29;20052;-85
2022/12/21 03:14:44;;;;;;;32.90;16.60;;;;;;;4.98;100.00;100335.81;4835572;29;20054;-84
2022/12/21 03:17:39;;;;;;;34.47;17.30;;;;;;;5.06;100.00;100328.81;4838261;29;20102;-83
2022/12/21 03:20:08;;;;;;;;;;;;;;;5.05;100.00;100324.47;4825750;29;20582;-84
2022/12/21 03:22:42;;;;;;;33.33;16.93;;;;;;;5.10;100.00;100309.59;4851814;29;20415;-83
2022/12/21 03:25:19;;;;;;;35.88;17.05;;;;;;;5.06;100.00;100306.13;4838307;29;20507;-86
2022/12/21 03:27:49;;;;;;;31.13;17.10;;;;;;;5.02;100.00;100309.63;4837205;29;20038;-84
2022/12/21 03:30:18;;;;;;;36.17;17.60;;;;;;;5.01;100.00;100313.09;4848278;29;20056;-83
2022/12/21 03:33:05;;;;;;;31.00;17.00;;;;;;;5.04;100.00;100302.66;4850372;29;20048;-83
2022/12/21 03:35:41;;;;;;;31.53;16.83;;;;;;;5.11;100.00;100307.84;4852538;29;20041;-83
2022/12/21 03:38:13;;;;;;;30.27;17.07;;;;;;;5.00;100.00;100307.88;4837538;29;20492;-83
2022/12/21 03:40:42;;;;;;;33.87;18.27;;;;;;;5.09;100.00;100308.72;4822417;29;20044;-84
2022/12/21 03:43:20;;;;;;;29.50;18.00;;;;;;;5.15;100.00;100306.97;4821768;29;20102;-84
2022/12/21 03:45:55;;;;;;;33.07;17.10;;;;;;;5.07;100.00;100300.00;4850269;29;20045;-84
2022/12/21 03:48:27;;;;;;;26.57;17.33;;;;;;;5.04;100.00;100305.28;4823286;29;20046;-84
2022/12/21 03:50:55;;;;;;;32.60;18.13;;;;;;;5.06;100.00;100300.88;4840321;29;20049;-85
2022/12/21 03:53:49;;;;;;;33.47;17.47;;;;;;;5.10;100.00;100304.34;4823226;29;20419;-84
2022/12/21 03:56:25;;;;;;;30.30;17.67;;;;;;;5.09;100.00;100300.88;4841343;29;20410;-84
2022/12/21 03:58:52;;;;;;;31.63;16.47;;;;;;;5.07;100.00;100294.78;4820376;29;20046;-84
2022/12/21 04:01:47;;;;;;;33.80;17.33;;;;;;;5.06;100.00;100287.78;4852973;29;20049;-83
2022/12/21 04:04:17;;;;;;;;;;;;;;;5.02;100.00;100293.91;4824420;29;20513;-85
2022/12/21 04:06:44;;;;;;;29.50;17.03;;;;;;;5.06;100.00;100294.78;4845101;29;19924;-85
2022/12/21 04:09:11;;;;;;;34.70;17.43;;;;;;;5.06;100.00;100295.66;4838875;29;20056;-83
2022/12/21 04:14:23;;;;;;;30.83;18.13;;;;;;;5.06;100.00;100289.53;4837898;29;20554;-81
2022/12/21 04:16:50;;;;;;;39.27;18.83;;;;;;;5.12;100.00;100289.50;4837035;29;20137;-81
2022/12/21 04:22:04;;;;;;;31.53;18.00;;;;;;;5.12;100.00;100288.63;4848944;29;20042;-81
2022/12/21 04:30:02;;;;;;;35.07;17.17;;;;;;;5.12;100.00;100286.88;4846660;29;20041;-82
2022/12/21 04:32:29;;;;;;;33.43;17.73;;;;;;;5.08;100.00;100283.41;4835455;29;20046;-81
2022/12/21 04:34:56;;;;;;;28.87;16.03;;;;;;;5.03;100.00;100282.56;4832396;29;20042;-81
2022/12/21 04:37:32;;;;;;;34.77;17.83;;;;;;;5.07;100.00;100291.28;4834450;29;20133;-81
2022/12/21 04:39:59;;;;;;;31.90;17.87;;;;;;;5.01;100.00;100292.16;4827671;29;20042;-81
2022/12/21 04:42:26;;;;;;;31.90;17.70;;;;;;;4.98;100.00;100292.19;4836246;29;20121;-81
2022/12/21 04:44:53;;;;;;;33.73;18.33;;;;;;;5.03;100.00;100292.16;4821123;29;20038;-80
2022/12/21 04:47:20;;;;;;;37.23;19.43;;;;;;;4.96;100.00;100291.34;4849817;29;20053;-81
2022/12/21 04:49:46;;;;;;;33.80;17.23;;;;;;;4.93;100.00;100280.84;4841306;29;20495;-81
2022/12/21 04:52:13;;;;;;;35.37;19.00;;;;;;;4.95;100.00;100286.06;4818489;29;20046;-81
2022/12/21 04:54:40;;;;;;;44.20;21.03;;;;;;;5.00;100.00;100276.47;4840210;29;20053;-81
2022/12/21 04:57:06;;;;;;;33.43;18.63;;;;;;;4.95;100.00;100286.94;4848075;29;20050;-82
2022/12/21 04:59:33;;;;;;;33.63;17.83;;;;;;;4.90;100.00;100282.63;4852825;29;20054;-81
2022/12/21 05:02:00;;;;;;;34.20;18.73;;;;;;;4.92;100.00;100276.50;4853669;29;20045;-81
2022/12/21 05:04:27;;;;;;;38.90;18.67;;;;;;;4.88;100.00;100282.63;4832850;29;20154;-82
2022/12/21 05:06:54;;;;;;;37.20;19.53;;;;;;;4.95;100.00;100276.47;4853973;29;20038;-81
2022/12/21 05:09:22;;;;;;;34.40;19.27;;;;;;;4.90;100.00;100286.09;4836685;29;20527;-81
2022/12/21 05:11:47;;;;;;;36.43;19.60;;;;;;;4.89;100.00;100292.22;4856056;29;20037;-81
2022/12/21 05:14:14;;;;;;;41.03;20.03;;;;;;;4.90;100.00;100293.09;4848932;29;20041;-81
2022/12/21 05:16:41;;;;;;;36.83;20.57;;;;;;;4.89;100.00;100291.34;4838636;29;20057;-81
2022/12/21 05:19:08;;;;;;;39.93;18.73;;;;;;;4.86;100.00;100291.34;4823207;29;20045;-81
2022/12/21 05:21:34;;;;;;;39.53;20.07;;;;;;;4.84;100.00;100283.50;4849865;29;20094;-81
2022/12/21 05:24:01;;;;;;;40.50;21.63;;;;;;;4.91;100.00;100286.97;4848989;29;20061;-81
2022/12/21 05:26:28;;;;;;;41.23;21.70;;;;;;;4.83;100.00;100283.50;4840530;29;20053;-81
2022/12/21 05:28:54;;;;;;;38.23;19.10;;;;;;;4.82;100.00;100274.78;4854395;29;20038;-81
2022/12/21 05:31:21;;;;;;;38.87;20.60;;;;;;;4.87;100.00;100274.75;4820783;29;20053;-81
2022/12/21 05:33:48;;;;;;;38.33;18.87;;;;;;;4.83;100.00;100273.91;4849857;29;20053;-81
2022/12/21 05:36:16;;;;;;;38.17;20.97;;;;;;;4.82;100.00;100276.53;4838786;29;20058;-82
2022/12/21 05:38:43;;;;;;;39.80;20.47;;;;;;;4.94;100.00;100279.97;4832146;29;20517;-81
2022/12/21 05:41:12;;;;;;;34.97;18.83;;;;;;;4.97;100.00;100271.25;4817837;29;20045;-81
2022/12/21 05:43:39;;;;;;;36.80;18.23;;;;;;;4.89;100.00;100266.06;4836723;29;20061;-82
2022/12/21 05:46:08;;;;;;;37.67;19.73;;;;;;;4.83;100.00;100273.03;4850731;29;20050;-82
2022/12/21 05:48:36;;;;;;;34.73;19.37;;;;;;;4.84;100.00;100273.03;4836713;29;20040;-81
2022/12/21 05:51:10;;;;;;;39.43;20.80;;;;;;;4.87;100.00;100285.22;4836395;29;20045;-81
2022/12/21 05:53:40;;;;;;;34.78;18.00;;;;;;;4.87;100.00;100287.84;4838832;29;20766;-82
2022/12/21 05:56:07;;;;;;;39.53;20.40;;;;;;;4.89;100.00;100292.22;4838628;29;20058;-81
2022/12/21 05:58:34;;;;;;;37.83;20.00;;;;;;;4.86;100.00;100294.84;4841337;29;20046;-81
2022/12/21 06:01:02;;;;;;;37.50;19.93;;;;;;;4.89;100.00;100287.00;4839062;29;20118;-81
2022/12/21 06:03:29;;;;;;;34.43;19.00;;;;;;;4.80;100.00;100287.03;4851766;29;20407;-81
2022/12/21 06:06:07;;;;;;;34.07;17.53;;;;;;;4.77;100.00;100292.25;4821657;29;20078;-82
2022/12/21 06:08:34;;;;;;;34.90;18.67;;;;;;;4.77;100.00;100305.31;4840149;29;20042;-82
2022/12/21 06:11:06;;;;;;;40.77;19.33;;;;;;;4.95;100.00;100310.50;4851803;29;20508;-82
2022/12/21 06:13:33;;;;;;;33.73;18.87;;;;;;;4.77;100.00;100302.72;4836021;29;20045;-82
2022/12/21 06:16:07;;;;;;;37.77;19.47;;;;;;;4.78;100.00;100300.09;4854850;29;20484;-82
2022/12/21 06:18:34;;;;;;;39.38;20.17;;;;;;;4.79;100.00;100300.94;4833875;29;20040;-82
2022/12/21 06:21:02;;;;;;;38.67;19.60;;;;;;;4.89;100.00;100300.06;4816901;29;20046;-82
2022/12/21 06:23:28;;;;;;;38.53;19.07;;;;;;;4.76;100.00;100301.84;4833751;29;20050;-82
2022/12/21 06:25:57;;;;;;;37.60;18.67;;;;;;;4.76;100.00;100303.59;4837875;29;20632;-82
2022/12/21 06:28:24;;;;;;;37.37;19.97;;;;;;;4.74;100.00;100292.25;4826922;29;20068;-82
2022/12/21 06:30:52;;;;;;;35.70;18.50;;;;;;;4.82;100.00;100300.97;4835330;29;20058;-81
2022/12/21 06:33:20;;;;;;;40.03;20.07;;;;;;;4.83;100.00;100299.22;4832610;29;20054;-81
2022/12/21 06:35:47;;;;;;;39.33;20.40;;;;;;;4.75;100.00;100301.84;4848503;29;20049;-81
2022/12/21 06:38:14;;;;;;;42.60;20.17;;;;;;;4.87;100.00;100303.56;4851847;29;20053;-81
2022/12/21 06:40:41;;;;;;;39.73;20.23;;;;;;;4.91;100.00;100307.91;4838800;29;20041;-81
2022/12/21 06:43:07;;;;;;;43.67;21.37;;;;;;;4.93;100.00;100308.78;4836510;29;20050;-82
2022/12/21 06:45:34;;;;;;;42.47;21.43;;;;;;;4.85;100.00;100305.31;4851152;29;20106;-82
2022/12/21 06:48:01;;;;;;;40.93;20.07;;;;;;;4.82;100.00;100311.44;4829052;29;20086;-82
2022/12/21 06:50:27;;;;;;;46.63;23.23;;;;;;;4.88;100.00;100307.94;4822045;29;20049;-81
2022/12/21 06:52:54;;;;;;;40.93;20.53;;;;;;;4.83;100.00;100304.44;4821999;29;20707;-82
2022/12/21 06:55:21;;;;;;;45.07;20.87;;;;;;;4.86;100.00;100307.06;4839517;29;20046;-82
2022/12/21 06:57:47;;;;;;;41.87;21.57;;;;;;;4.84;100.00;100304.44;4837260;29;20042;-81
2022/12/21 07:00:14;;;;;;;43.87;21.73;;;;;;;4.79;100.00;100299.25;4837646;29;20046;-81
2022/12/21 07:02:42;;;;;;;41.63;21.77;;;;;;;4.77;100.00;100298.34;4826080;29;20053;-82
2022/12/21 07:05:09;;;;;;;48.40;22.87;;;;;;;4.89;100.00;100314.91;4834983;29;20064;-81
2022/12/21 07:07:35;;;;;;;49.23;21.87;;;;;;;4.99;100.00;100314.00;4851055;29;20050;-81
2022/12/21 07:10:02;;;;;;;42.63;21.07;;;;;;;4.88;100.00;100313.19;4853001;29;20046;-82
2022/12/21 07:12:29;;;;;;;41.93;20.77;;;;;;;4.83;100.00;100313.19;4842189;29;20041;-81
2022/12/21 07:14:55;;;;;;;51.07;21.13;;;;;;;4.80;100.00;100305.34;4836631;29;20049;-81
2022/12/21 07:17:22;;;;;;;41.67;20.87;;;;;;;4.80;100.00;100307.97;4856077;29;20124;-81
2022/12/21 07:19:49;;;;;;;43.10;22.77;;;;;;;4.91;100.00;100302.69;4838191;29;20045;-81
2022/12/21 07:22:16;;;;;;;45.23;22.23;;;;;;;4.85;100.00;100298.31;4839499;29;20162;-81
2022/12/21 07:24:42;;;;;;;43.97;21.90;;;;;;;4.79;100.00;100307.09;4834746;29;20411;-81
2022/12/21 07:27:09;;;;;;;46.03;24.07;;;;;;;4.79;100.00;100307.09;4822498;29;20110;-81
2022/12/21 07:29:36;;;;;;;42.67;21.07;;;;;;;4.88;100.00;100311.44;4820659;29;20062;-82
2022/12/21 07:32:03;;;;;;;51.27;23.93;;;;;;;4.86;100.00;100313.16;4837501;29;20038;-82
2022/12/21 07:34:30;;;;;;;43.23;23.73;;;;;;;4.86;100.00;100313.16;4836036;29;20049;-81
2022/12/21 07:36:56;;;;;;;48.73;23.50;;;;;;;4.81;100.00;100309.69;4853181;29;20046;-81
2022/12/21 07:39:23;;;;;;;46.97;22.20;;;;;;;4.83;100.00;100318.41;4852509;29;20095;-81
2022/12/21 07:41:49;;;;;;;45.20;21.27;;;;;;;4.83;100.00;100323.66;4855089;29;20050;-83
2022/12/21 07:44:16;;;;;;;43.07;21.10;;;;;;;4.86;100.00;100326.25;4839252;29;20046;-81
2022/12/21 07:46:44;;;;;;;44.23;19.53;;;;;;;4.85;100.00;100326.25;4836621;29;20042;-80
2022/12/21 07:49:10;;;;;;;43.93;21.33;;;;;;;4.84;100.00;100319.28;4851953;29;20038;-81
2022/12/21 07:51:37;;;;;;;47.33;21.43;;;;;;;4.85;100.00;100321.88;4849526;29;20042;-81
2022/12/21 07:54:04;;;;;;;46.40;22.57;;;;;;;4.83;100.00;100318.41;4855856;29;20036;-82
2022/12/21 07:56:30;;;;;;;48.90;23.10;;;;;;;4.88;100.00;100323.66;4832943;29;20062;-81
2022/12/21 07:58:59;;;;;;;44.97;21.93;;;;;;;4.83;100.00;100326.25;4849782;29;20038;-81
2022/12/21 08:01:26;;;;;;;48.13;23.23;;;;;;;4.86;100.00;100334.09;4831163;29;20034;-82
2022/12/21 08:03:53;;;;;;;45.57;22.00;;;;;;;4.85;100.00;100337.59;4840980;29;20410;-82
2022/12/21 08:06:20;;;;;;;45.30;20.67;;;;;;;4.86;100.00;100344.56;4834388;29;20588;-81
2022/12/21 08:08:47;;;;;;;47.80;23.00;;;;;;;4.89;100.00;100334.09;4834461;29;20053;-82
2022/12/21 08:11:17;;;;;;;48.37;23.63;;;;;;;4.91;100.00;100339.34;4837034;29;20050;-82
2022/12/21 08:13:44;;;;;;;45.83;23.37;;;;;;;4.91;100.00;100339.34;4847797;29;20094;-82
2022/12/21 08:16:12;;;;;;;45.33;21.80;;;;;;;4.89;100.00;100334.09;4836225;29;20128;-82
2022/12/21 08:18:39;;;;;;;50.17;21.63;;;;;;;4.98;100.00;100335.81;4857173;29;20034;-82
2022/12/21 08:21:06;;;;;;;44.97;21.10;;;;;;;4.95;100.00;100339.28;4822265;29;20167;-82
2022/12/21 08:23:33;;;;;;;51.87;22.90;;;;;;;5.06;100.00;100339.28;4836279;29;20038;-81
2022/12/21 08:26:04;;;;;;;47.90;22.00;;;;;;;5.01;100.00;100334.06;4849760;29;20575;-82
2022/12/21 08:28:31;;;;;;;42.47;22.33;;;;;;;5.05;100.00;100338.41;4838391;29;20033;-81
2022/12/21 08:31:13;;;;;;;53.73;21.87;;;;;;;5.05;100.00;100317.47;4853982;29;20492;-81
2022/12/21 08:33:41;;;;;;;44.20;20.00;;;;;;;5.07;100.00;100323.56;4855471;29;20121;-81
2022/12/21 08:36:10;;;;;;;59.10;25.10;;;;;;;5.19;100.00;100327.88;4841086;29;20080;-81
2022/12/21 08:38:37;;;;;;;52.57;24.03;;;;;;;5.23;100.00;100327.00;4840288;29;20037;-82
2022/12/21 08:41:24;;;;;;;51.23;24.57;;;;;;;5.31;100.00;100329.59;4833555;29;20141;-81
2022/12/21 08:43:51;;;;;;;50.97;22.00;;;;;;;5.31;100.00;100332.22;4837528;29;20152;-85
2022/12/21 08:46:17;;;;;;;55.03;25.30;;;;;;;5.30;100.00;100335.72;4852658;29;20038;-83
2022/12/21 08:48:46;;;;;;;63.90;24.67;;;;;;;5.40;100.00;100337.41;4840821;29;20492;-83
2022/12/21 08:51:12;;;;;;;50.93;24.13;;;;;;;5.41;100.00;100339.16;4849390;29;20105;-83
2022/12/21 08:53:39;;;;;;;55.37;24.37;;;;;;;5.57;100.00;100334.72;4842750;29;20050;-82
2022/12/21 08:56:06;;;;;;;60.97;26.23;;;;;;;5.70;100.00;100340.72;4838792;29;20098;-84
2022/12/21 08:58:33;;;;;;;57.63;26.80;;;;;;;5.61;100.00;100339.91;4838132;29;20469;-84
2022/12/21 09:01:00;;;;;;;48.43;23.27;;;;;;;5.61;100.00;100339.91;4849920;29;20043;-84
2022/12/21 09:03:27;;;;;;;64.07;27.73;;;;;;;5.54;100.00;100335.56;4856290;29;20069;-83
2022/12/21 09:05:58;;;;;;;55.57;24.43;;;;;;;5.65;100.00;100335.53;4838749;29;20052;-83
2022/12/21 09:08:34;;;;;;;51.67;24.40;;;;;;;5.57;100.00;100334.72;4836095;29;20408;-83
2022/12/21 09:11:02;;;;;;;50.83;21.50;;;;;;;5.56;100.00;100336.47;4854870;29;20063;-83
2022/12/21 09:13:29;;;;;;;47.43;21.83;;;;;;;5.61;100.00;100339.91;4823934;29;20114;-83
2022/12/21 09:15:55;;;;;;;52.00;22.63;;;;;;;5.63;100.00;100345.13;4837352;29;20068;-83
2022/12/21 09:18:23;;;;;;;51.33;23.10;;;;;;;5.70;100.00;100338.13;4854359;29;20068;-85
2022/12/21 09:20:49;;;;;;;48.80;22.10;;;;;;;5.65;100.00;100338.16;4850975;29;20118;-83
2022/12/21 09:23:16;;;;;;;64.90;25.27;;;;;;;5.66;100.00;100334.66;4835010;29;20049;-83
2022/12/21 09:25:42;;;;;;;40.33;20.90;;;;;;;5.60;100.00;100338.16;4817274;29;20052;-83
2022/12/21 09:28:09;;;;;;;51.40;22.30;;;;;;;5.60;100.00;100345.16;4839462;29;20508;-84
2022/12/21 09:30:36;;;;;;;46.67;19.97;;;;;;;5.61;100.00;100344.28;4839118;29;20117;-83
2022/12/21 09:33:02;;;;;;;42.13;18.80;;;;;;;5.74;100.00;100348.59;4835457;29;20052;-85
2022/12/21 09:35:30;;;;;;;53.10;20.83;;;;;;;5.69;100.00;100347.72;4853438;23;20045;-79
2022/12/21 09:37:57;;;;;;;57.77;24.43;;;;;;;5.74;100.00;100347.72;4843481;29;20041;-82
2022/12/21 09:40:24;;;;;;;51.57;23.97;;;;;;;5.69;100.00;100347.72;4862752;29;20049;-80
2022/12/21 09:43:04;;;;;;;91.77;24.57;;;;;;;5.65;100.00;100333.78;4887169;29;20037;-81
2022/12/21 09:45:54;;;;;;;42.17;18.13;;;;;;;5.71;100.00;100338.09;4862093;29;20108;-81
2022/12/21 09:48:30;;;;;;;73.20;23.90;;;;;;;5.71;100.00;100337.22;4845990;29;20444;-81
2022/12/21 09:51:04;;;;;;;52.50;22.50;;;;;;;5.82;100.00;100353.78;4887126;29;20046;-79
2022/12/21 09:53:50;;;;;;;45.67;21.80;;;;;;;5.69;100.00;100352.97;4886634;29;20069;-82
2022/12/21 09:56:20;;;;;;;47.17;19.60;;;;;;;5.82;100.00;100343.31;4864216;29;20068;-82
2022/12/21 09:58:48;;;;;;;61.80;23.47;;;;;;;5.70;100.00;100340.72;4856313;29;20045;-81
2022/12/21 10:01:27;;;;;;;59.13;26.73;;;;;;;5.77;100.00;100350.31;4857290;29;20038;-81
2022/12/21 10:04:11;;;;;;;63.70;28.30;;;;;;;5.76;100.00;100343.31;4848154;29;20042;-79
2022/12/21 10:07:01;;;;;;;;;;;;;;;5.83;100.00;100350.28;4870666;29;20037;-82
2022/12/21 10:09:52;;;;;;;49.23;21.90;;;;;;;5.78;100.00;100355.53;4857280;29;19923;-80
2022/12/21 10:12:28;;;;;;;48.53;19.87;;;;;;;5.78;100.00;100354.66;4874129;29;20090;-80
2022/12/21 10:15:15;;;;;;;46.03;21.60;;;;;;;5.81;100.00;100344.19;4845357;29;20045;-79
2022/12/21 10:18:11;;;;;;;45.20;19.57;;;;;;;5.81;100.00;100349.44;4867169;29;20597;-81
2022/12/21 10:21:01;;;;;;;90.23;27.43;;;;;;;5.79;100.00;100345.91;4859149;29;20040;-80
2022/12/21 10:23:34;;;;;;;41.57;18.97;;;;;;;5.72;100.00;100344.22;4855765;29;20072;-80
2022/12/21 10:26:04;;;;;;;41.57;18.87;;;;;;;5.69;100.00;100342.50;4824500;29;20070;-79
2022/12/21 10:28:38;;;;;;;43.53;18.47;;;;;;;5.73;100.00;100336.38;4835255;29;20072;-79
2022/12/21 10:31:06;;;;;;;;;;;;;;;5.72;100.00;100324.16;4858314;29;20176;-79
2022/12/21 10:33:37;;;;;;;54.43;21.33;;;;;;;5.78;100.00;100324.06;4870264;29;20214;-80
2022/12/21 10:36:05;;;;;;;51.27;20.27;;;;;;;5.83;100.00;100331.94;4841633;29;20046;-79
2022/12/21 10:38:35;;;;;;;58.53;21.43;;;;;;;5.89;100.00;100321.41;4840480;29;20045;-80
2022/12/21 10:41:07;;;;;;;46.30;19.30;;;;;;;5.87;100.00;100331.00;4869934;29;20045;-79
2022/12/21 10:43:38;;;;;;;44.10;18.60;;;;;;;5.90;100.00;100323.16;4871759;29;20053;-79
2022/12/21 10:46:05;;;;;;;53.23;19.40;;;;;;;5.89;100.00;100317.03;4852491;29;20101;-79
2022/12/21 10:48:33;;;;;;;47.53;19.07;;;;;;;5.94;100.00;100322.25;4841689;29;20129;-78
2022/12/21 10:51:12;;;;;;;74.53;24.17;;;;;;;5.91;100.00;100319.69;4839532;29;20045;-79
2022/12/21 10:53:40;;;;;;;45.07;18.33;;;;;;;6.00;100.00;100308.25;4861144;29;20500;-78
2022/12/21 10:56:17;;;;;;;48.73;19.70;;;;;;;6.01;100.00;100307.38;4838537;29;20464;-79
2022/12/21 10:58:49;;;;;;;46.30;20.07;;;;;;;6.00;100.00;100311.75;4861767;29;20157;-79
2022/12/21 11:01:23;;;;;;;85.20;23.57;;;;;;;5.98;100.00;100310.03;4838658;29;20056;-79
2022/12/21 11:04:08;;;;;;;47.00;18.90;;;;;;;6.08;100.00;100307.31;4866024;29;20045;-79
2022/12/21 11:06:35;;;;;;;47.17;20.30;;;;;;;5.96;100.00;100293.41;4843439;29;20099;-79
2022/12/21 11:09:04;;;;;;;51.63;20.57;;;;;;;5.96;100.00;100290.78;4858070;29;20033;-78
2022/12/21 11:11:37;;;;;;;40.47;17.97;;;;;;;5.94;100.00;100282.94;4845463;29;20048;-79
2022/12/21 11:14:14;;;;;;;44.60;17.60;;;;;;;5.97;100.00;100285.56;4870821;29;20405;-79
2022/12/21 11:16:42;;;;;;;43.97;18.57;;;;;;;6.02;100.00;100283.75;4842533;29;20049;-79
2022/12/21 11:19:11;;;;;;;51.13;19.60;;;;;;;6.04;100.00;100279.34;4844422;29;20071;-79
2022/12/21 11:21:48;;;;;;;44.80;19.73;;;;;;;6.12;100.00;100281.91;4861012;29;20496;-79
2022/12/21 11:24:21;;;;;;;54.70;21.13;;;;;;;6.16;100.00;100291.50;4870514;29;20492;-79
2022/12/21 11:26:51;;;;;;;53.92;20.77;;;;;;;6.26;100.00;100284.44;4870559;29;20391;-78
2022/12/21 11:29:22;;;;;;;45.10;19.10;;;;;;;6.19;100.00;100287.09;4871392;29;20044;-78
2022/12/21 11:31:50;;;;;;;47.93;19.30;;;;;;;6.22;100.00;100278.31;4874043;29;20037;-78
2022/12/21 11:34:27;;;;;;;42.60;19.33;;;;;;;6.27;100.00;100275.66;4870186;29;20049;-80
2022/12/21 11:36:57;;;;;;;45.00;19.20;;;;;;;6.20;100.00;100270.47;4859156;29;20061;-78
2022/12/21 11:39:24;;;;;;;51.27;20.57;;;;;;;6.24;100.00;100279.19;4855587;29;20137;-78
2022/12/21 11:41:52;;;;;;;49.67;20.60;;;;;;;6.23;100.00;100277.47;4860004;29;20060;-79